Time;durP1;ratioP1;P1;durP2;ratioP2;P2;SDS_P1;SDS_P2;PMS_P1;PMS_P2;Temp;Humidity;BMP_temperature;BMP_pressure;BME280_temperature;BME280_humidity;BME280_pressure;Samples;Min_cycle;Max_cycle;Signal;HPM_P1;HPM_P2
2023/07/24 05:23:55;;;;;;;;;3.00;3.00;;;;;22.62;56.92;100280.63;5011160;28;45492;-80
2023/07/24 05:26:22;;;;;;;;;4.00;4.00;;;;;22.74;56.33;100283.81;5006090;28;45453;-79
2023/07/24 05:28:47;;;;;;;;;3.00;3.00;;;;;22.89;56.31;100272.25;5000217;28;45549;-80
2023/07/24 05:31:12;;;;;;;;;4.00;4.00;;;;;23.05;55.95;100278.59;5000107;28;45368;-81
2023/07/24 05:33:37;;;;;;;;;3.67;3.67;;;;;23.18;55.91;100276.19;5005452;28;56765;-80
2023/07/24 05:36:03;;;;;;;;;3.00;3.00;;;;;23.34;55.78;100272.53;5007783;28;50239;-80
2023/07/24 05:38:30;;;;;;;;;2.00;2.00;;;;;23.48;55.24;100286.34;4999421;28;45709;-81
2023/07/24 05:40:56;;;;;;;;;3.00;3.00;;;;;23.59;55.32;100280.53;5002545;28;45505;-80
2023/07/24 05:43:22;;;;;;;;;3.67;3.00;;;;;23.71;55.02;100280.09;5013192;28;46223;-82
2023/07/24 05:45:47;;;;;;;;;3.00;3.00;;;;;23.80;54.45;100281.72;5003041;28;45716;-79
2023/07/24 05:48:12;;;;;;;;;2.00;2.00;;;;;23.89;54.69;100287.91;5000514;28;54734;-78
2023/07/24 05:50:37;;;;;;;;;5.00;3.00;;;;;23.99;54.44;100282.25;5000749;28;45534;-81
2023/07/24 05:53:03;;;;;;;;;3.00;3.00;;;;;24.07;54.27;100282.16;4993753;28;47648;-78
2023/07/24 05:55:28;;;;;;;;;4.33;1.00;;;;;24.13;54.33;100284.19;4995144;28;45543;-79
2023/07/24 05:57:53;;;;;;;;;5.33;3.00;;;;;24.19;53.68;100286.16;4996553;28;46615;-78
2023/07/24 06:00:19;;;;;;;;;4.00;4.00;;;;;24.29;53.55;100288.59;4997135;28;45844;-85
2023/07/24 06:02:44;;;;;;;;;2.67;2.33;;;;;24.41;53.38;100288.16;4996145;28;45405;-81
2023/07/24 06:05:10;;;;;;;;;4.00;2.00;;;;;24.51;53.33;100274.28;4989638;28;45605;-79
2023/07/24 06:07:35;;;;;;;;;5.00;4.00;;;;;24.60;53.19;100278.59;5003337;28;45416;-79
2023/07/24 06:10:00;;;;;;;;;3.33;2.00;;;;;24.69;52.80;100279.38;5001652;28;57109;-79
2023/07/24 06:12:26;;;;;;;;;2.33;2.33;;;;;24.77;52.87;100279.25;4996363;28;46088;-80
2023/07/24 06:14:51;;;;;;;;;3.33;3.33;;;;;24.82;52.43;100282.25;5006252;28;45440;-79
2023/07/24 06:17:16;;;;;;;;;3.33;3.33;;;;;24.89;52.31;100289.69;5002862;28;45693;-79
2023/07/24 06:19:42;;;;;;;;;2.67;2.67;;;;;24.93;52.34;100283.66;4991030;28;57873;-77
2023/07/24 06:22:07;;;;;;;;;2.67;2.67;;;;;24.98;52.00;100288.53;4997774;28;45836;-79
2023/07/24 06:24:32;;;;;;;;;3.33;3.33;;;;;25.00;51.41;100276.47;5007488;28;45408;-75
2023/07/24 06:26:58;;;;;;;;;3.67;3.00;;;;;25.08;51.49;100296.38;5019971;28;45751;-79
2023/07/24 06:29:23;;;;;;;;;3.33;3.33;;;;;25.12;51.69;100284.97;5019932;28;45559;-78
2023/07/24 06:31:49;;;;;;;;;5.67;4.00;;;;;25.18;51.72;100296.91;5019528;28;47044;-79
2023/07/24 06:34:15;;;;;;;;;1.67;1.67;;;;;25.24;51.76;100295.31;5020002;28;45621;-77
2023/07/24 06:36:40;;;;;;;;;3.00;3.00;;;;;25.30;51.42;100291.84;5012860;28;45628;-76
2023/07/24 06:39:05;;;;;;;;;2.00;2.00;;;;;25.36;51.66;100298.38;5012469;28;48772;-76
2023/07/24 06:41:31;;;;;;;;;1.00;1.00;;;;;25.39;51.56;100296.13;5012728;28;45954;-76
2023/07/24 06:43:56;;;;;;;;;1.67;1.67;;;;;25.45;51.32;100304.53;5002292;28;45614;-76
2023/07/24 06:46:21;;;;;;;;;2.00;2.00;;;;;25.48;51.27;100288.72;5012550;28;45719;-77
2023/07/24 06:48:46;;;;;;;;;1.00;1.00;;;;;25.53;51.10;100301.69;5012609;28;45544;-76
2023/07/24 06:51:12;;;;;;;;;1.00;1.00;;;;;25.58;51.28;100296.56;5012315;28;57127;-76
2023/07/24 06:53:37;;;;;;;;;1.33;1.33;;;;;25.61;51.19;100304.34;5013036;28;56214;-78
2023/07/24 06:56:02;;;;;;;;;1.67;1.67;;;;;25.65;50.69;100293.91;5013784;28;45370;-77
2023/07/24 06:58:28;;;;;;;;;2.67;1.33;;;;;25.69;50.59;100305.22;5012264;28;45557;-78
2023/07/24 07:00:53;;;;;;;;;2.00;2.00;;;;;25.71;50.94;100304.00;4999745;28;45994;-77
2023/07/24 07:03:18;;;;;;;;;3.00;2.00;;;;;25.76;50.44;100306.16;5008415;28;57757;-75
2023/07/24 07:05:43;;;;;;;;;2.00;1.67;;;;;25.76;50.60;100298.81;5001867;28;50435;-77
2023/07/24 07:08:09;;;;;;;;;2.33;2.00;;;;;25.80;50.93;100307.44;4988255;28;46215;-78
2023/07/24 07:10:34;;;;;;;;;3.00;2.00;;;;;25.82;50.34;100299.91;4988518;28;62203;-77
2023/07/24 07:12:59;;;;;;;;;2.00;2.00;;;;;25.86;50.72;100300.38;5003715;28;45580;-76
2023/07/24 07:15:25;;;;;;;;;3.00;2.00;;;;;25.88;50.80;100301.03;5008547;28;45641;-76
2023/07/24 07:17:50;;;;;;;;;2.00;1.67;;;;;25.89;50.45;100305.44;5006847;28;45580;-81
2023/07/24 07:20:16;;;;;;;;;1.33;1.33;;;;;25.93;50.77;100304.00;5011937;28;46037;-79
2023/07/24 07:22:41;;;;;;;;;1.00;1.00;;;;;25.94;50.09;100299.41;4992267;28;45665;-78
2023/07/24 07:25:06;;;;;;;;;2.67;2.67;;;;;25.99;49.89;100313.25;5007005;28;45355;-79
2023/07/24 07:27:32;;;;;;;;;2.00;1.00;;;;;25.98;50.38;100312.41;5009138;28;45625;-79
2023/07/24 07:29:57;;;;;;;;;2.00;2.00;;;;;26.04;49.88;100314.34;5003097;28;46342;-77
2023/07/24 07:32:22;;;;;;;;;2.00;2.00;;;;;26.05;50.30;100320.63;5006984;28;45772;-77
2023/07/24 07:34:48;;;;;;;;;1.00;1.00;;;;;26.08;50.14;100314.81;5002286;28;45724;-80
2023/07/24 07:37:13;;;;;;;;;3.00;3.00;;;;;26.10;49.94;100312.72;5008824;28;45532;-76
2023/07/24 07:39:38;;;;;;;;;2.00;2.00;;;;;26.12;49.92;100317.97;5012654;28;45354;-76
2023/07/24 07:42:04;;;;;;;;;3.67;2.00;;;;;26.15;49.81;100315.69;5008464;28;45632;-76
2023/07/24 07:44:29;;;;;;;;;3.00;2.00;;;;;26.16;50.06;100308.38;5006649;28;45508;-77
2023/07/24 07:46:55;;;;;;;;;1.00;1.00;;;;;26.19;50.15;100318.84;4996905;28;45627;-76
2023/07/24 07:49:20;;;;;;;;;3.00;3.00;;;;;26.22;49.68;100317.63;5003114;28;45566;-75
2023/07/24 07:51:45;;;;;;;;;1.00;1.00;;;;;26.22;49.56;100314.91;4999860;28;50148;-76
2023/07/24 07:54:10;;;;;;;;;2.00;2.00;;;;;26.24;48.62;100313.66;5009588;28;45473;-79
2023/07/24 07:56:36;;;;;;;;;3.00;2.00;;;;;26.24;48.22;100304.69;5005670;28;45665;-79
2023/07/24 07:59:01;;;;;;;;;2.00;2.00;;;;;26.24;48.33;100312.84;5006352;28;46114;-76
2023/07/24 08:01:26;;;;;;;;;1.00;1.00;;;;;26.23;48.36;100313.88;5002563;28;45552;-78
2023/07/24 08:03:52;;;;;;;;;3.00;3.00;;;;;26.22;47.83;100320.34;5010066;28;45488;-75
2023/07/24 08:06:17;;;;;;;;;1.00;1.00;;;;;26.21;47.66;100311.34;5006507;28;45566;-81
2023/07/24 08:08:42;;;;;;;;;1.00;1.00;;;;;26.22;47.92;100309.47;5010069;28;45525;-81
2023/07/24 08:11:08;;;;;;;;;2.67;2.67;;;;;26.21;47.42;100305.06;5009754;28;45421;-81
2023/07/24 08:13:34;;;;;;;;;1.00;1.00;;;;;26.21;47.39;100316.78;5005584;28;45346;-81
2023/07/24 08:15:59;;;;;;;;;1.00;1.00;;;;;26.21;47.80;100305.91;5008612;28;45453;-89
2023/07/24 08:18:25;;;;;;;;;1.33;1.33;;;;;26.21;47.41;100305.91;5012680;28;45677;-87
2023/07/24 08:20:51;;;;;;;;;2.00;2.00;;;;;26.21;47.59;100314.06;5007867;28;45900;-82
2023/07/24 08:23:16;;;;;;;;;2.00;2.00;;;;;26.20;47.21;100308.81;5009025;28;45666;-86
2023/07/24 08:25:53;;;;;;;;;2.67;2.00;;;;;26.19;46.78;100305.25;5008162;28;45523;-82
2023/07/24 08:28:19;;;;;;;;;2.33;2.33;;;;;26.19;47.05;100299.81;5001307;28;45748;-84
2023/07/24 08:30:44;;;;;;;;;3.67;3.00;;;;;26.18;46.13;100304.44;5001904;28;45355;-86
2023/07/24 08:33:09;;;;;;;;;3.00;3.00;;;;;26.17;46.17;100297.28;5002419;28;54760;-85
2023/07/24 08:35:35;;;;;;;;;2.00;2.00;;;;;26.16;46.59;100298.31;4997138;28;45923;-83
2023/07/24 08:38:00;;;;;;;;;3.00;3.00;;;;;26.21;46.47;100299.63;5008401;28;45457;-84
2023/07/24 08:40:25;;;;;;;;;2.00;2.00;;;;;26.21;46.15;100313.22;4999369;28;46938;-79
2023/07/24 08:42:52;;;;;;;;;2.33;2.33;;;;;26.20;46.44;100312.41;4995622;28;45582;-82
2023/07/24 08:45:18;;;;;;;;;3.00;3.00;;;;;26.20;45.54;100300.66;4996740;28;45753;-80
2023/07/24 08:47:45;;;;;;;;;2.00;2.00;;;;;26.19;46.01;100310.69;4997044;28;46631;-84
2023/07/24 08:50:12;;;;;;;;;3.00;2.00;;;;;26.18;46.13;100293.56;5008097;28;45505;-79
2023/07/24 08:52:38;;;;;;;;;2.00;2.00;;;;;26.20;45.95;100306.97;4997075;28;45703;-79
2023/07/24 08:55:05;;;;;;;;;4.33;1.67;;;;;26.18;45.58;100299.00;5022837;28;45816;-78
2023/07/24 08:57:30;;;;;;;;;2.67;2.67;;;;;26.15;45.13;100307.53;5001221;28;47942;-79
2023/07/24 08:59:56;;;;;;;;;3.00;1.00;;;;;26.16;45.48;100311.09;5001185;28;45593;-78
2023/07/24 09:02:21;;;;;;;;;7.00;4.00;;;;;26.16;45.40;100305.66;5000065;28;45483;-78
2023/07/24 09:04:46;;;;;;;;;7.67;3.00;;;;;26.14;45.58;100310.44;5003160;28;45492;-79
2023/07/24 09:07:13;;;;;;;;;4.00;2.33;;;;;26.15;45.57;100314.84;4998345;28;45475;-78
2023/07/24 09:09:39;;;;;;;;;3.33;3.33;;;;;26.16;45.21;100319.25;4995466;28;45641;-79
2023/07/24 09:12:05;;;;;;;;;4.67;4.00;;;;;26.15;44.63;100320.28;4995484;28;45906;-79
2023/07/24 09:14:30;;;;;;;;;2.00;2.00;;;;;26.14;45.16;100322.19;5001157;28;45485;-79
2023/07/24 09:17:09;;;;;;;;;1.33;1.00;;;;;26.15;45.11;100312.13;5011412;28;45982;-79
2023/07/24 09:19:35;;;;;;;;;2.00;2.00;;;;;26.16;45.01;100332.88;5010291;28;45650;-79
2023/07/24 09:22:09;;;;;;;;;5.33;2.33;;;;;26.15;44.57;100321.13;5009955;28;45608;-79
2023/07/24 09:24:34;;;;;;;;;3.00;3.00;;;;;26.15;45.01;100320.28;5004588;28;45460;-79
2023/07/24 09:26:59;;;;;;;;;2.00;2.00;;;;;26.14;44.55;100316.75;5000081;28;50349;-79
2023/07/24 09:29:35;;;;;;;;;3.00;3.00;;;;;26.13;44.25;100325.09;5008085;28;45586;-79
2023/07/24 09:32:00;;;;;;;;;2.67;2.67;;;;;26.13;44.28;100325.94;4997284;28;45537;-79
2023/07/24 09:34:25;;;;;;;;;2.00;2.00;;;;;26.10;45.00;100311.88;5009783;28;45491;-79
2023/07/24 09:36:51;;;;;;;;;2.33;2.33;;;;;26.12;44.85;100326.13;5006941;28;46713;-79
2023/07/24 09:39:23;;;;;;;;;4.33;1.00;;;;;26.10;44.60;100325.47;5009403;28;45469;-79
2023/07/24 09:41:49;;;;;;;;;2.00;2.00;;;;;26.09;45.01;100327.38;5002791;28;45681;-79
2023/07/24 09:44:15;;;;;;;;;2.00;2.00;;;;;26.08;44.27;100322.97;5008712;28;45705;-79
2023/07/24 09:46:43;;;;;;;;;1.00;1.00;;;;;26.08;44.32;100316.69;5000200;28;45921;-79
2023/07/24 09:49:09;;;;;;;;;2.00;1.00;;;;;26.09;44.83;100331.94;4996164;28;45563;-79
2023/07/24 09:51:35;;;;;;;;;2.00;2.00;;;;;26.08;44.97;100327.56;4992817;28;45861;-79
2023/07/24 09:54:05;;;;;;;;;2.33;2.00;;;;;26.09;44.68;100321.06;4992411;28;45592;-79
2023/07/24 09:56:32;;;;;;;;;2.33;2.33;;;;;26.09;44.79;100330.09;4994318;28;45594;-79
2023/07/24 09:59:00;;;;;;;;;2.00;2.00;;;;;26.07;44.40;100326.69;4995669;28;45745;-80
2023/07/24 10:01:26;;;;;;;;;3.00;3.00;;;;;26.05;44.91;100323.34;4999160;28;45564;-80
2023/07/24 10:03:52;;;;;;;;;1.00;1.00;;;;;26.07;45.03;100328.59;4998543;28;45576;-80
2023/07/24 10:06:18;;;;;;;;;4.67;3.00;;;;;26.05;44.91;100324.19;4998559;28;46392;-80
2023/07/24 10:08:44;;;;;;;;;2.00;2.00;;;;;26.04;44.89;100322.50;5002534;28;45613;-81
2023/07/24 10:11:12;;;;;;;;;2.00;2.00;;;;;26.05;44.79;100329.66;5007206;28;45328;-80
2023/07/24 10:13:38;;;;;;;;;1.00;1.00;;;;;26.04;44.76;100318.97;5007292;28;45597;-80
2023/07/24 10:16:06;;;;;;;;;2.33;2.33;;;;;26.06;44.49;100327.75;5006104;28;46116;-80
2023/07/24 10:18:33;;;;;;;;;1.67;1.67;;;;;26.07;44.25;100328.59;4998537;28;45845;-80
2023/07/24 10:21:07;;;;;;;;;2.00;2.00;;;;;26.07;44.33;100332.13;5009620;28;46463;-80
2023/07/24 10:23:41;;;;;;;;;2.00;2.00;;;;;26.08;44.53;100324.84;5002491;28;45532;-81
2023/07/24 10:26:07;;;;;;;;;1.00;1.00;;;;;26.08;44.07;100325.69;5004060;28;46310;-81
2023/07/24 10:28:38;;;;;;;;;2.00;2.00;;;;;26.06;44.08;100319.59;5000586;28;45792;-81
2023/07/24 10:31:08;;;;;;;;;1.33;1.33;;;;;26.08;44.49;100322.13;5005500;28;45553;-80
2023/07/24 10:33:39;;;;;;;;;2.00;2.00;;;;;26.08;44.07;100330.28;5005077;28;45631;-79
2023/07/24 10:36:10;;;;;;;;;3.00;1.00;;;;;26.09;44.10;100326.50;5004416;28;45478;-81
2023/07/24 10:38:41;;;;;;;;;1.33;1.33;;;;;26.05;44.61;100324.19;4996399;28;46192;-76
2023/07/24 10:41:08;;;;;;;;;2.00;2.00;;;;;26.08;44.19;100324.84;5000466;28;45662;-79
2023/07/24 10:43:49;;;;;;;;;1.00;1.00;;;;;26.07;44.46;100323.16;5007721;28;45616;-79
2023/07/24 10:46:17;;;;;;;;;2.33;2.33;;;;;26.04;44.70;100313.50;5003348;28;45613;-82
2023/07/24 10:48:44;;;;;;;;;2.33;2.33;;;;;26.05;44.25;100312.47;5006655;28;45751;-83
2023/07/24 10:51:10;;;;;;;;;2.00;2.00;;;;;26.06;44.17;100316.88;4999419;28;45534;-82
2023/07/24 10:53:37;;;;;;;;;6.00;2.67;;;;;26.08;44.41;100316.69;5013224;28;45638;-81
2023/07/24 10:56:05;;;;;;;;;3.00;3.00;;;;;26.09;44.30;100307.47;5002338;28;46548;-79
2023/07/24 10:58:31;;;;;;;;;2.00;2.00;;;;;26.10;44.11;100314.59;5001105;28;47139;-79
2023/07/24 11:00:57;;;;;;;;;1.00;1.00;;;;;26.10;44.67;100326.31;5005514;28;45441;-78
2023/07/24 11:03:23;;;;;;;;;3.33;2.00;;;;;26.09;45.26;100324.66;5000161;28;46139;-78
2023/07/24 11:05:49;;;;;;;;;5.67;4.67;;;;;26.08;45.30;100322.97;4996889;28;45596;-78
2023/07/24 11:08:17;;;;;;;;;3.00;3.00;;;;;26.12;45.45;100326.94;4999634;28;46341;-78
2023/07/24 11:10:57;;;;;;;;;2.00;1.00;;;;;26.12;45.25;100317.97;5001180;28;45582;-77
2023/07/24 11:13:27;;;;;;;;;2.33;0.33;;;;;26.12;45.72;100323.41;5001563;28;46293;-78
2023/07/24 11:15:53;;;;;;;;;2.67;2.67;;;;;26.08;45.38;100319.41;5003507;28;45907;-78
2023/07/24 11:18:26;;;;;;;;;4.33;2.00;;;;;26.11;44.88;100321.72;5003521;28;45388;-78
2023/07/24 11:20:56;;;;;;;;;1.33;1.33;;;;;26.09;44.34;100323.78;5000901;28;45343;-78
2023/07/24 11:23:22;;;;;;;;;1.67;1.67;;;;;26.07;44.92;100334.84;4995055;28;45931;-78
2023/07/24 11:25:51;;;;;;;;;2.33;2.00;;;;;26.05;44.53;100329.66;4999512;28;45634;-78
2023/07/24 11:28:16;;;;;;;;;2.00;2.00;;;;;26.08;45.04;100333.84;4998300;28;45530;-77
2023/07/24 11:30:42;;;;;;;;;2.00;2.00;;;;;26.07;44.71;100320.44;4997736;28;45510;-78
2023/07/24 11:33:09;;;;;;;;;5.00;2.33;;;;;26.05;44.46;100320.63;5000501;28;45647;-78
2023/07/24 11:35:38;;;;;;;;;2.00;2.00;;;;;26.05;44.99;100326.91;5000063;28;45612;-78
2023/07/24 11:38:03;;;;;;;;;3.00;3.00;;;;;26.09;44.98;100319.22;4999576;28;45831;-75
2023/07/24 11:40:35;;;;;;;;;3.00;3.00;;;;;26.10;45.17;100325.47;4998272;28;45617;-75
2023/07/24 11:43:02;;;;;;;;;4.00;2.00;;;;;26.10;45.28;100323.59;4993533;28;45525;-83
2023/07/24 11:45:29;;;;;;;;;1.67;1.67;;;;;26.09;45.19;100318.34;4995959;28;45625;-85
2023/07/24 11:47:56;;;;;;;;;4.00;3.00;;;;;26.05;45.34;100323.34;4995936;28;45616;-84
2023/07/24 11:50:22;;;;;;;;;1.33;1.33;;;;;25.99;44.96;100319.53;4996067;28;45382;-83
2023/07/24 11:52:50;;;;;;;;;2.00;2.00;;;;;25.95;45.62;100322.84;4993990;28;45914;-82
2023/07/24 11:55:19;;;;;;;;;5.33;5.33;;;;;25.91;45.38;100325.94;5001079;28;45888;-77
2023/07/24 11:57:55;;;;;;;;;8.33;7.00;;;;;25.83;45.54;100312.47;4993187;28;45779;-81
2023/07/24 12:00:22;;;;;;;;;6.67;6.00;;;;;25.80;46.03;100321.03;4994708;28;45570;-79
2023/07/24 12:02:48;;;;;;;;;4.67;4.00;;;;;25.74;45.67;100317.22;5008320;28;45723;-79
2023/07/24 12:05:14;;;;;;;;;3.67;3.00;;;;;25.73;46.03;100318.25;5009413;28;47180;-80
2023/07/24 12:07:39;;;;;;;;;6.00;3.00;;;;;25.74;45.79;100322.66;5011161;28;45533;-79
2023/07/24 12:10:09;;;;;;;;;2.67;2.67;;;;;25.71;45.64;100322.19;5008286;28;45376;-80
2023/07/24 12:12:47;;;;;;;;;1.33;1.33;;;;;25.72;46.31;100326.59;4991517;28;45431;-79
2023/07/24 12:15:14;;;;;;;;;3.00;2.67;;;;;25.71;45.95;100324.91;4997535;28;45346;-79
2023/07/24 12:17:40;;;;;;;;;2.00;2.00;;;;;25.69;45.76;100322.38;5002820;28;45588;-81
2023/07/24 12:20:08;;;;;;;;;2.67;2.67;;;;;25.69;45.82;100321.53;4994686;28;45610;-80
2023/07/24 12:22:34;;;;;;;;;3.67;3.33;;;;;25.69;45.86;100321.53;4999602;28;45507;-80
2023/07/24 12:25:00;;;;;;;;;2.67;2.67;;;;;25.68;46.08;100322.56;5011849;28;45621;-79
2023/07/24 12:27:25;;;;;;;;;3.33;3.33;;;;;25.65;46.00;100315.66;5006662;28;45624;-80
2023/07/24 12:29:53;;;;;;;;;3.33;2.33;;;;;25.65;45.63;100319.22;5010459;28;45665;-80
2023/07/24 12:32:20;;;;;;;;;4.00;2.33;;;;;25.65;45.56;100326.53;5006212;28;45648;-80
2023/07/24 12:34:46;;;;;;;;;3.33;2.33;;;;;25.69;45.65;100327.81;4985373;28;46666;-77
2023/07/24 12:37:12;;;;;;;;;4.33;2.67;;;;;25.75;46.03;100326.22;5006724;28;49185;-76
2023/07/24 12:39:37;;;;;;;;;2.00;2.00;;;;;25.78;45.81;100329.38;5008401;28;45500;-75
2023/07/24 12:42:03;;;;;;;;;5.00;4.00;;;;;25.85;45.31;100326.72;5007708;28;45531;-76
2023/07/24 12:44:28;;;;;;;;;5.67;4.00;;;;;25.90;45.64;100324.25;4999044;28;45936;-80
2023/07/24 12:46:53;;;;;;;;;2.00;2.00;;;;;25.95;45.47;100328.28;4999957;28;56123;-86
2023/07/24 12:49:19;;;;;;;;;2.00;2.00;;;;;26.00;45.37;100323.09;5000428;28;48592;-85
2023/07/24 12:51:44;;;;;;;;;2.67;2.67;;;;;26.04;44.84;100322.50;5000456;28;45803;-84
2023/07/24 12:54:09;;;;;;;;;2.33;2.00;;;;;26.09;45.23;100327.38;5002542;28;45468;-84
2023/07/24 12:56:34;;;;;;;;;2.33;2.33;;;;;26.12;44.58;100317.97;5000976;28;53963;-84
2023/07/24 12:59:01;;;;;;;;;3.00;2.33;;;;;26.14;44.50;100319.47;5009554;28;50804;-84
2023/07/24 13:01:28;;;;;;;;;3.00;3.00;;;;;26.18;44.75;100323.47;5001187;28;45950;-84
2023/07/24 13:03:54;;;;;;;;;6.00;2.00;;;;;26.21;44.83;100333.13;4999418;28;45531;-86
2023/07/24 13:06:19;;;;;;;;;3.67;2.67;;;;;26.26;44.96;100332.53;5000836;28;45426;-79
2023/07/24 13:08:44;;;;;;;;;3.33;3.00;;;;;26.26;44.56;100319.78;5005956;28;45468;-79
2023/07/24 13:11:10;;;;;;;;;4.33;2.67;;;;;26.28;44.61;100319.59;5007661;28;45945;-80
2023/07/24 13:13:36;;;;;;;;;4.00;3.00;;;;;26.30;44.82;100317.50;5001554;28;46464;-81
2023/07/24 13:16:02;;;;;;;;;1.67;1.67;;;;;26.33;44.70;100327.16;5003886;28;45847;-80
2023/07/24 13:18:28;;;;;;;;;1.67;1.67;;;;;26.37;44.54;100331.16;5000814;28;45542;-81
2023/07/24 13:20:53;;;;;;;;;2.00;2.00;;;;;26.37;44.39;100336.59;5007773;28;46920;-86
2023/07/24 13:23:18;;;;;;;;;2.00;2.00;;;;;26.39;44.45;100327.22;5002360;28;48258;-83
2023/07/24 13:25:44;;;;;;;;;4.67;3.00;;;;;26.41;44.72;100329.72;5001948;28;47913;-80
2023/07/24 13:28:09;;;;;;;;;4.33;3.00;;;;;26.41;44.13;100322.41;5003978;28;46700;-79
2023/07/24 13:30:35;;;;;;;;;5.33;3.00;;;;;26.43;43.91;100316.75;4997450;28;45658;-79
2023/07/24 13:33:00;;;;;;;;;2.67;2.00;;;;;26.42;43.84;100313.22;5009291;28;45533;-79
2023/07/24 13:35:25;;;;;;;;;1.67;1.33;;;;;26.43;43.82;100314.88;5002351;28;45534;-79
2023/07/24 13:37:51;;;;;;;;;3.33;3.33;;;;;26.40;44.38;100306.28;5011457;28;47382;-77
2023/07/24 13:40:16;;;;;;;;;3.00;3.00;;;;;26.42;44.03;100315.09;5010284;28;45670;-77
2023/07/24 13:42:41;;;;;;;;;4.00;3.00;;;;;26.45;44.79;100320.13;4987664;28;48504;-79
2023/07/24 13:45:07;;;;;;;;;5.00;2.00;;;;;26.44;44.70;100308.41;4993732;28;45398;-79
2023/07/24 13:47:33;;;;;;;;;4.00;2.33;;;;;26.46;44.46;100308.22;5010730;28;45467;-81
2023/07/24 13:49:59;;;;;;;;;4.00;2.67;;;;;26.48;44.40;100318.91;4998169;28;49463;-78
2023/07/24 13:52:25;;;;;;;;;3.67;3.67;;;;;26.49;44.62;100337.75;5013320;28;46443;-75
2023/07/24 13:54:50;;;;;;;;;3.00;1.67;;;;;26.52;45.08;100341.97;5007283;28;45841;-77
2023/07/24 13:57:15;;;;;;;;;3.33;2.00;;;;;26.54;44.52;100351.59;5013141;28;45477;-76
2023/07/24 13:59:41;;;;;;;;;3.00;3.00;;;;;26.56;45.26;100352.22;5014986;28;45378;-77
2023/07/24 14:02:06;;;;;;;;;3.33;3.00;;;;;26.58;44.92;100352.03;5012487;28;45775;-77
2023/07/24 14:04:31;;;;;;;;;4.33;4.33;;;;;26.60;44.72;100360.84;5012133;28;45853;-77
2023/07/24 14:06:57;;;;;;;;;3.33;3.33;;;;;26.62;44.93;100363.38;5008323;28;45802;-76
2023/07/24 14:09:22;;;;;;;;;3.67;3.67;;;;;26.66;44.91;100359.22;5002372;28;45549;-77
2023/07/24 14:11:47;;;;;;;;;2.00;2.00;;;;;26.66;45.16;100359.22;4995608;28;49027;-76
2023/07/24 14:14:13;;;;;;;;;4.00;2.50;;;;;26.69;45.45;100358.81;4995134;28;45699;-76
2023/07/24 14:16:38;;;;;;;;;3.00;2.67;;;;;26.73;44.89;100351.09;5003539;28;45646;-75
2023/07/24 14:19:03;;;;;;;;;2.00;2.00;;;;;26.73;45.33;100349.19;4997724;28;58280;-76
2023/07/24 14:21:29;;;;;;;;;3.00;3.00;;;;;26.74;45.06;100341.88;4998916;28;46774;-76
2023/07/24 14:23:54;;;;;;;;;3.67;2.00;;;;;26.76;44.97;100343.34;4997503;28;45461;-76
2023/07/24 14:26:19;;;;;;;;;2.33;1.67;;;;;26.75;44.97;100322.63;4998827;28;45401;-77
2023/07/24 14:28:45;;;;;;;;;3.00;2.00;;;;;26.78;45.09;100329.56;4997518;28;45661;-78
2023/07/24 14:31:10;;;;;;;;;2.33;2.00;;;;;26.81;45.93;100321.00;4999936;28;46037;-78
2023/07/24 14:33:36;;;;;;;;;2.67;2.00;;;;;26.81;45.51;100315.53;4998596;28;45418;-77
2023/07/24 14:36:02;;;;;;;;;1.00;1.00;;;;;26.85;46.06;100319.53;4994288;28;45805;-76
2023/07/24 14:38:27;;;;;;;;;3.33;3.33;;;;;26.85;45.54;100314.06;4998878;28;45757;-76
2023/07/24 14:40:52;;;;;;;;;4.67;2.00;;;;;26.87;45.34;100300.25;4998710;28;45828;-76
2023/07/24 14:43:17;;;;;;;;;3.00;2.00;;;;;26.90;46.06;100308.03;4999021;28;45303;-76
2023/07/24 14:45:43;;;;;;;;;2.67;2.33;;;;;26.91;45.51;100298.81;4996374;28;46043;-76
2023/07/24 14:48:13;;;;;;;;;4.67;2.00;;;;;26.90;46.02;100295.28;4996532;28;45890;-81
2023/07/24 14:50:38;;;;;;;;;4.00;2.00;;;;;26.93;45.72;100288.59;4999412;28;46185;-76
2023/07/24 14:53:04;;;;;;;;;6.00;3.67;;;;;26.94;45.44;100296.56;4987918;28;46446;-74
2023/07/24 14:55:29;;;;;;;;;1.33;1.00;;;;;26.94;44.42;100287.56;5004732;28;45441;-75
2023/07/24 14:57:54;;;;;;;;;2.00;2.00;;;;;26.91;44.34;100296.09;5004903;28;45701;-80
2023/07/24 15:00:20;;;;;;;;;1.00;1.00;;;;;26.92;44.57;100287.72;4997733;28;45573;-80
2023/07/24 15:02:45;;;;;;;;;4.33;2.67;;;;;26.92;43.94;100290.47;4987689;28;50826;-81
2023/07/24 15:05:10;;;;;;;;;2.00;2.00;;;;;26.90;44.01;100292.56;5013267;28;45430;-83
2023/07/24 15:07:36;;;;;;;;;2.00;2.00;;;;;26.90;43.70;100292.56;5007067;28;45681;-81
2023/07/24 15:10:01;;;;;;;;;3.00;3.00;;;;;26.87;44.51;100298.41;5006938;28;45869;-81
2023/07/24 15:12:26;;;;;;;;;2.00;1.67;;;;;26.89;43.88;100299.03;5006911;28;45708;-82
2023/07/24 15:14:52;;;;;;;;;1.00;1.00;;;;;26.86;43.98;100294.00;5012775;28;45539;-83
2023/07/24 15:17:18;;;;;;;;;2.33;2.33;;;;;26.89;43.92;100292.75;5014072;28;45397;-86
2023/07/24 15:19:43;;;;;;;;;2.00;2.00;;;;;26.87;44.29;100294.81;5003978;28;46487;-84
2023/07/24 15:22:09;;;;;;;;;1.67;1.67;;;;;26.86;44.20;100288.56;5006442;28;45665;-86
2023/07/24 15:24:34;;;;;;;;;2.00;2.00;;;;;26.86;44.64;100290.44;5012041;28;45631;-85
2023/07/24 15:26:59;;;;;;;;;2.00;2.00;;;;;26.84;44.74;100277.00;5005215;28;45548;-84
2023/07/24 15:29:25;;;;;;;;;1.00;1.00;;;;;26.87;44.55;100283.94;4989774;28;46399;-81
2023/07/24 15:31:50;;;;;;;;;1.00;1.00;;;;;26.85;44.80;100273.25;5002642;28;45716;-79
2023/07/24 15:34:15;;;;;;;;;1.00;1.00;;;;;26.87;44.15;100273.03;5012157;28;45433;-85
2023/07/24 15:36:41;;;;;;;;;2.00;2.00;;;;;26.86;44.82;100277.66;5008927;28;49557;-83
2023/07/24 15:39:06;;;;;;;;;1.33;1.33;;;;;26.84;44.34;100275.13;5012162;28;45927;-81
2023/07/24 15:41:32;;;;;;;;;2.00;1.00;;;;;26.86;44.63;100274.09;5012377;28;45604;-79
2023/07/24 15:43:57;;;;;;;;;1.00;1.00;;;;;26.87;44.50;100267.59;5007804;28;45548;-78
2023/07/24 15:46:22;;;;;;;;;1.00;1.00;;;;;26.86;44.09;100263.19;5002209;28;45656;-80
2023/07/24 15:48:48;;;;;;;;;1.67;1.67;;;;;26.84;44.32;100264.25;5011674;28;53300;-78
2023/07/24 15:51:13;;;;;;;;;1.33;1.33;;;;;26.84;44.84;100260.66;5004223;28;55389;-82
2023/07/24 15:53:38;;;;;;;;;1.00;1.00;;;;;26.86;45.02;100260.47;5011249;28;45442;-83
2023/07/24 15:56:05;;;;;;;;;1.33;1.33;;;;;26.84;44.98;100256.06;5002514;28;47547;-78
2023/07/24 15:58:31;;;;;;;;;4.33;3.00;;;;;26.85;44.77;100254.19;5010987;28;45967;-76
2023/07/24 16:00:56;;;;;;;;;3.00;3.00;;;;;26.84;44.51;100255.22;5008038;28;45549;-77
2023/07/24 16:03:21;;;;;;;;;1.00;1.00;;;;;26.83;44.44;100254.41;5009551;28;45469;-75
2023/07/24 16:05:47;;;;;;;;;2.00;2.00;;;;;26.83;44.64;100246.25;5007895;28;45697;-82
2023/07/24 16:08:12;;;;;;;;;2.00;0.00;;;;;26.83;45.13;100240.78;5002644;28;46122;-78
2023/07/24 16:10:38;;;;;;;;;1.00;1.00;;;;;26.82;44.45;100239.09;5005337;28;45504;-78
2023/07/24 16:13:03;;;;;;;;;1.33;1.33;;;;;26.80;44.28;100233.03;5006129;28;48588;-79
2023/07/24 16:15:28;;;;;;;;;1.33;1.33;;;;;26.80;44.25;100229.44;5003457;28;51520;-78
2023/07/24 16:17:54;;;;;;;;;1.67;1.00;;;;;26.78;44.78;100237.84;5005848;28;45827;-78
2023/07/24 16:20:21;;;;;;;;;1.00;0.00;;;;;26.79;44.94;100241.38;5001302;28;45489;-78
2023/07/24 16:22:46;;;;;;;;;3.00;3.00;;;;;26.77;44.47;100246.22;5001219;28;46064;-82
2023/07/24 16:25:11;;;;;;;;;1.33;1.33;;;;;26.76;44.44;100233.66;5001545;28;45778;-87
2023/07/24 16:27:37;;;;;;;;;1.00;1.00;;;;;26.77;45.27;100243.47;5005419;28;48035;-87
2023/07/24 16:30:02;;;;;;;;;2.00;2.00;;;;;26.77;45.08;100247.03;5010777;28;45414;-88
2023/07/24 16:32:27;;;;;;;;;1.00;1.00;;;;;26.78;44.46;100256.03;5005668;28;45439;-84
2023/07/24 16:34:53;;;;;;;;;0.33;0.33;;;;;26.77;44.54;100260.63;4999711;28;45398;-83
2023/07/24 16:37:18;;;;;;;;;1.00;1.00;;;;;26.78;45.03;100253.31;4997980;28;45646;-83
2023/07/24 16:39:43;;;;;;;;;0.33;0.33;;;;;26.79;45.00;100263.16;5008648;28;45481;-81
2023/07/24 16:42:09;;;;;;;;;2.33;2.33;;;;;26.75;44.64;100259.16;5008094;28;59682;-83